Time;durP1;ratioP1;P1;durP2;ratioP2;P2;SDS_P1;SDS_P2;PMS_P1;PMS_P2;Temp;Humidity;BMP_temperature;BMP_pressure;BME280_temperature;BME280_humidity;BME280_pressure;Samples;Min_cycle;Max_cycle;Signal;HPM_P1;HPM_P2
2023/10/26 00:02:18;;;;;;;20.75;8.63;;;;;;;13.37;96.46;99042.38;7360023;19;20078;-64
2023/10/26 00:04:45;;;;;;;18.58;9.00;;;;;;;13.36;97.09;99031.00;7355853;19;20026;-64
2023/10/26 00:07:14;;;;;;;15.57;8.65;;;;;;;13.39;97.04;99030.59;7359884;19;20034;-64
2023/10/26 00:09:41;;;;;;;16.02;7.97;;;;;;;13.38;96.97;99014.94;7356530;19;20019;-64
2023/10/26 00:12:07;;;;;;;15.25;8.77;;;;;;;13.42;97.23;99013.50;7357000;19;20018;-65
2023/10/26 00:14:34;;;;;;;16.50;8.63;;;;;;;13.40;97.11;99019.00;7359431;19;20676;-64
2023/10/26 00:17:01;;;;;;;16.20;7.85;;;;;;;13.35;96.31;99020.69;7361784;19;21014;-64
2023/10/26 00:19:28;;;;;;;17.83;8.43;;;;;;;13.36;96.45;99020.44;7356332;19;20098;-64
2023/10/26 00:21:56;;;;;;;16.70;8.32;;;;;;;13.37;96.47;99027.34;7360684;19;20025;-63
2023/10/26 00:24:23;;;;;;;18.70;8.70;;;;;;;13.39;96.19;99022.66;7356867;19;20019;-65
2023/10/26 00:26:50;;;;;;;18.55;9.05;;;;;;;13.41;96.10;99023.25;7386557;19;20018;-65
2023/10/26 00:29:17;;;;;;;19.67;8.45;;;;;;;13.41;96.31;99009.25;7380238;19;20018;-65
2023/10/26 00:31:43;;;;;;;16.45;8.27;;;;;;;13.41;96.24;99007.38;7389162;19;20029;-65
2023/10/26 00:34:10;;;;;;;14.75;6.78;;;;;;;13.43;96.02;99009.81;7382516;19;20033;-65
2023/10/26 00:36:37;;;;;;;15.02;7.13;;;;;;;13.41;96.21;99002.09;7384411;19;20522;-65
2023/10/26 00:39:04;;;;;;;14.80;7.38;;;;;;;13.39;96.56;99000.72;7357360;19;20022;-68
2023/10/26 00:41:32;;;;;;;11.63;6.70;;;;;;;13.37;96.35;98997.47;7359145;19;20486;-65
2023/10/26 00:43:59;;;;;;;15.18;6.88;;;;;;;13.37;96.57;98992.19;7356579;19;20010;-64
2023/10/26 00:46:26;;;;;;;16.50;7.22;;;;;;;13.37;96.60;98995.66;7356049;19;20031;-64
2023/10/26 00:48:53;;;;;;;17.98;7.13;;;;;;;13.41;97.06;98996.03;7360009;19;20483;-64
2023/10/26 00:51:21;;;;;;;17.67;7.43;;;;;;;13.40;96.96;98989.94;7385644;19;20429;-64
2023/10/26 00:53:49;;;;;;;16.83;7.22;;;;;;;13.39;96.95;98996.25;7372996;19;20027;-65
2023/10/26 00:56:20;;;;;;;13.80;6.60;;;;;;;13.42;96.92;98990.53;7359334;19;20093;-63
2023/10/26 00:58:48;;;;;;;13.65;6.75;;;;;;;13.44;96.87;98987.66;7354349;19;21674;-63
2023/10/26 01:01:16;;;;;;;24.58;8.82;;;;;;;13.43;96.89;98980.75;7359661;19;20019;-65
2023/10/26 01:03:46;;;;;;;14.93;6.65;;;;;;;13.42;96.90;98979.13;7354836;19;20029;-64
2023/10/26 01:06:13;;;;;;;15.38;6.85;;;;;;;13.46;97.44;98975.84;7357505;19;20663;-65
2023/10/26 01:08:40;;;;;;;13.32;7.05;;;;;;;13.48;98.06;98973.81;7358357;19;20018;-65
2023/10/26 01:11:07;;;;;;;14.77;7.20;;;;;;;13.49;97.55;98971.97;7354266;19;20042;-65
2023/10/26 01:13:34;;;;;;;16.58;7.55;;;;;;;13.46;97.44;98962.63;7351213;19;20022;-64
2023/10/26 01:16:04;;;;;;;13.77;6.38;;;;;;;13.47;97.11;98963.44;7359915;19;20093;-64
2023/10/26 01:18:31;;;;;;;16.63;7.25;;;;;;;13.45;97.04;98954.94;7354931;19;21919;-63
2023/10/26 01:20:58;;;;;;;13.18;7.47;;;;;;;13.46;97.70;98957.34;7356708;19;20018;-63
2023/10/26 01:23:25;;;;;;;16.33;6.90;;;;;;;13.47;97.74;98958.16;7356990;19;20415;-63
2023/10/26 01:25:55;;;;;;;13.70;5.97;;;;;;;13.47;97.55;98955.53;7357258;19;20006;-63
2023/10/26 01:28:23;;;;;;;16.88;6.93;;;;;;;13.45;97.43;98953.13;7351965;19;20553;-64
2023/10/26 01:30:51;;;;;;;18.27;6.50;;;;;;;13.48;97.99;98946.56;7357827;19;20015;-64
2023/10/26 01:33:19;;;;;;;14.48;5.80;;;;;;;13.47;97.69;98943.13;7356159;19;20011;-64
2023/10/26 01:35:47;;;;;;;13.85;7.15;;;;;;;13.49;97.95;98946.38;7354972;19;20037;-65
2023/10/26 01:38:14;;;;;;;16.65;7.00;;;;;;;13.48;97.65;98949.22;7356104;19;20018;-62
2023/10/26 01:40:41;;;;;;;16.73;6.97;;;;;;;13.45;98.05;98939.91;7357460;19;20010;-64
2023/10/26 01:43:08;;;;;;;14.88;6.22;;;;;;;13.42;98.37;98944.78;7357155;19;20018;-65
2023/10/26 01:45:35;;;;;;;13.65;7.20;;;;;;;13.41;98.92;98938.69;7355118;19;20068;-65
2023/10/26 01:48:03;;;;;;;13.18;6.05;;;;;;;13.42;98.44;98923.66;7355539;19;20026;-65
2023/10/26 01:50:31;;;;;;;11.90;6.55;;;;;;;13.40;98.41;98931.00;7358409;19;20015;-65
2023/10/26 01:52:58;;;;;;;17.23;7.40;;;;;;;13.42;98.43;98928.94;7356558;19;20018;-65
2023/10/26 01:55:25;;;;;;;16.42;7.13;;;;;;;13.41;98.73;98919.44;7358076;19;20082;-64
2023/10/26 01:57:52;;;;;;;14.48;6.93;;;;;;;13.42;99.15;98931.59;7355562;19;20018;-66
2023/10/26 02:00:19;;;;;;;13.05;6.47;;;;;;;13.44;98.98;98926.91;7356137;19;20017;-64
2023/10/26 02:02:48;;;;;;;11.38;5.78;;;;;;;13.44;99.04;98917.16;7356511;19;20022;-64
2023/10/26 02:05:19;;;;;;;12.88;6.30;;;;;;;13.44;99.12;98917.16;7357544;19;20483;-66
2023/10/26 02:07:46;;;;;;;12.80;6.38;;;;;;;13.49;98.89;98919.13;7359130;19;20078;-65
2023/10/26 02:10:14;;;;;;;20.67;8.30;;;;;;;13.50;99.08;98902.25;7356896;19;20014;-64
2023/10/26 02:12:41;;;;;;;13.93;6.32;;;;;;;13.50;99.27;98904.91;7349933;19;20141;-65
2023/10/26 02:15:09;;;;;;;14.63;5.75;;;;;;;13.48;99.03;98891.91;7354203;19;20023;-65
2023/10/26 02:17:36;;;;;;;21.90;7.57;;;;;;;13.49;99.32;98888.22;7357193;19;20014;-66
2023/10/26 02:20:04;;;;;;;15.15;6.85;;;;;;;13.49;99.23;98882.94;7353572;19;20018;-64
2023/10/26 02:22:31;;;;;;;11.95;5.88;;;;;;;13.46;99.24;98879.94;7354950;19;20429;-64
2023/10/26 02:24:57;;;;;;;15.18;5.88;;;;;;;13.45;99.45;98879.13;7355828;19;20404;-64
2023/10/26 02:27:24;;;;;;;15.23;6.32;;;;;;;13.44;99.94;98869.59;7355214;19;20030;-64
2023/10/26 02:29:51;;;;;;;12.38;5.97;;;;;;;13.45;100.00;98859.84;7355307;19;20018;-64
2023/10/26 02:32:18;;;;;;;16.83;7.20;;;;;;;13.44;100.00;98855.56;7357328;19;20530;-64
2023/10/26 02:34:45;;;;;;;18.05;7.60;;;;;;;13.42;100.00;98850.50;7352683;19;20059;-64
2023/10/26 02:37:13;;;;;;;15.10;6.45;;;;;;;13.43;100.00;98854.75;7357455;19;20359;-65
2023/10/26 02:39:40;;;;;;;13.75;6.93;;;;;;;13.44;100.00;98845.00;7356529;19;20017;-64
2023/10/26 02:42:08;;;;;;;16.52;7.15;;;;;;;13.40;100.00;98857.03;7353619;19;20021;-65
2023/10/26 02:44:36;;;;;;;16.42;7.18;;;;;;;13.38;100.00;98854.63;7350839;19;20029;-64
2023/10/26 02:47:03;;;;;;;14.70;6.90;;;;;;;13.38;100.00;98854.63;7355567;19;20784;-64
2023/10/26 02:49:33;;;;;;;16.42;6.93;;;;;;;13.37;100.00;98847.72;7356692;19;20029;-64
2023/10/26 02:52:00;;;;;;;14.80;7.45;;;;;;;13.34;100.00;98837.59;7393031;19;20023;-65
2023/10/26 02:54:28;;;;;;;13.98;6.82;;;;;;;13.31;100.00;98848.59;7374059;19;20695;-64
2023/10/26 02:56:55;;;;;;;15.15;6.93;;;;;;;13.33;100.00;98848.38;7363261;19;20596;-64
2023/10/26 02:59:22;;;;;;;15.68;7.00;;;;;;;13.32;100.00;98849.41;7358708;19;20486;-64
2023/10/26 03:01:49;;;;;;;12.65;6.55;;;;;;;13.28;100.00;98843.75;7364574;19;20521;-65
2023/10/26 03:04:16;;;;;;;17.23;6.78;;;;;;;13.26;100.00;98832.59;7365767;19;20489;-64
2023/10/26 03:06:43;;;;;;;21.92;10.23;;;;;;;13.21;100.00;98838.53;7390235;19;20039;-64
2023/10/26 03:09:10;;;;;;;16.35;6.75;;;;;;;13.24;100.00;98832.81;7376718;19;20356;-64
2023/10/26 03:11:37;;;;;;;14.70;6.35;;;;;;;13.25;100.00;98829.16;7360223;19;20478;-64
2023/10/26 03:14:04;;;;;;;13.75;6.82;;;;;;;13.23;100.00;98820.63;7355763;19;20025;-65
2023/10/26 03:16:34;;;;;;;14.18;6.72;;;;;;;13.22;100.00;98818.22;7363430;19;20089;-64
2023/10/26 03:19:03;;;;;;;16.40;8.33;;;;;;;13.24;100.00;98822.25;7358664;19;20038;-64
2023/10/26 03:21:31;;;;;;;15.98;7.28;;;;;;;13.25;100.00;98810.69;7358597;19;20015;-63
2023/10/26 03:23:58;;;;;;;16.88;8.43;;;;;;;13.28;100.00;98814.69;7362097;19;20042;-63
2023/10/26 03:26:25;;;;;;;19.08;7.75;;;;;;;13.31;100.00;98814.25;7359901;19;20021;-62
2023/10/26 03:28:52;;;;;;;16.65;7.47;;;;;;;13.32;100.00;98809.78;7362289;19;20042;-63
2023/10/26 03:31:19;;;;;;;15.90;7.35;;;;;;;13.31;100.00;98814.25;7363101;19;20018;-63
2023/10/26 03:33:46;;;;;;;16.92;7.03;;;;;;;13.33;100.00;98814.84;7360592;19;20408;-64
2023/10/26 03:36:17;;;;;;;15.63;6.95;;;;;;;13.34;100.00;98805.09;7362269;19;20064;-64
2023/10/26 03:38:44;;;;;;;13.98;7.82;;;;;;;13.32;100.00;98817.69;7356583;19;20083;-63
2023/10/26 03:41:12;;;;;;;13.07;7.47;;;;;;;13.31;100.00;98816.09;7363050;19;21627;-63
2023/10/26 03:43:39;;;;;;;15.98;7.70;;;;;;;13.31;100.00;98801.03;7355753;19;20021;-63
2023/10/26 03:46:06;;;;;;;15.02;7.28;;;;;;;13.28;100.00;98799.66;7361332;19;20007;-64
2023/10/26 03:48:35;;;;;;;70.57;10.02;;;;;;;13.25;100.00;98794.81;7357216;19;20617;-63
2023/10/26 03:51:03;;;;;;;20.65;8.02;;;;;;;13.26;100.00;98796.41;7359718;19;20014;-63
2023/10/26 03:53:30;;;;;;;19.50;7.57;;;;;;;13.24;100.00;98787.94;7358903;19;20022;-64
2023/10/26 03:55:58;;;;;;;16.70;7.38;;;;;;;13.25;100.00;98788.75;7363001;19;20028;-63
2023/10/26 03:58:25;;;;;;;14.55;7.47;;;;;;;13.27;100.00;98781.38;7360048;19;20101;-64
2023/10/26 04:00:52;;;;;;;17.70;7.15;;;;;;;13.29;100.00;98784.63;7361443;19;20095;-63
2023/10/26 04:03:19;;;;;;;68.85;12.77;;;;;;;13.30;100.00;98785.44;7358150;19;20090;-63
2023/10/26 04:05:46;;;;;;;15.40;7.40;;;;;;;13.33;100.00;98790.25;7360431;19;20029;-64
2023/10/26 04:08:13;;;;;;;15.38;6.95;;;;;;;13.33;100.00;98790.25;7359643;19;20014;-64
2023/10/26 04:10:43;;;;;;;15.80;7.45;;;;;;;13.33;100.00;98793.72;7360799;19;20498;-64
2023/10/26 04:13:10;;;;;;;15.63;7.60;;;;;;;13.30;100.00;98790.72;7359297;19;20019;-64
2023/10/26 04:15:37;;;;;;;12.63;6.72;;;;;;;13.30;100.00;98785.44;7356945;19;20015;-64
2023/10/26 04:18:08;;;;;;;14.40;8.02;;;;;;;13.28;100.00;98783.00;7356004;19;20558;-64
2023/10/26 04:20:35;;;;;;;16.17;7.57;;;;;;;13.26;100.00;98787.69;7359287;19;20026;-64
2023/10/26 04:23:03;;;;;;;15.18;7.35;;;;;;;13.24;100.00;98789.75;7358841;19;21205;-64
2023/10/26 04:25:30;;;;;;;17.45;7.43;;;;;;;13.20;100.00;98784.13;7363799;19;20896;-63
2023/10/26 04:28:18;;;;;;;16.17;7.65;;;;;;;13.20;100.00;98776.19;7357489;19;20529;-64
2023/10/26 04:30:48;;;;;;;14.85;7.10;;;;;;;13.21;100.00;98782.25;7361584;19;20720;-64
2023/10/26 04:33:15;;;;;;;16.98;7.30;;;;;;;13.20;100.00;98780.66;7357960;19;20374;-63
2023/10/26 04:35:44;;;;;;;15.95;8.20;;;;;;;13.18;100.00;98788.81;7361245;19;20379;-64
2023/10/26 04:38:11;;;;;;;13.02;6.32;;;;;;;13.22;100.00;98799.72;7358767;19;20014;-63
2023/10/26 04:40:40;;;;;;;16.30;6.85;;;;;;;13.23;100.00;98788.94;7360378;19;20014;-64
2023/10/26 04:43:08;;;;;;;11.90;7.38;;;;;;;13.23;100.00;98791.59;7358363;19;20035;-63
2023/10/26 04:45:36;;;;;;;12.23;5.70;;;;;;;13.23;100.00;98785.50;7359223;19;20022;-64
2023/10/26 04:48:03;;;;;;;13.10;6.15;;;;;;;13.23;100.00;98782.84;7350408;19;20019;-63
2023/10/26 04:50:30;;;;;;;10.93;4.97;;;;;;;13.23;100.00;98767.81;7357942;19;20022;-61
2023/10/26 04:53:02;;;;;;;8.43;4.47;;;;;;;13.23;100.00;98767.00;7355824;19;20899;-67
2023/10/26 04:55:35;;;;;;;9.60;4.07;;;;;;;13.24;100.00;98760.72;7356909;19;20525;-63
2023/10/26 04:58:02;;;;;;;9.98;4.35;;;;;;;13.24;100.00;98758.88;7358027;19;20570;-64
2023/10/26 05:00:30;;;;;;;10.80;4.07;;;;;;;13.21;100.00;98746.09;7358102;19;20475;-64
2023/10/26 05:03:05;;;;;;;9.75;3.95;;;;;;;13.22;100.00;98745.06;7354134;19;20847;-64
2023/10/26 05:05:32;;;;;;;9.40;3.95;;;;;;;13.26;100.00;98748.88;7358474;19;20018;-64
2023/10/26 05:07:59;;;;;;;10.27;3.70;;;;;;;13.27;100.00;98744.41;7355512;19;20037;-63
2023/10/26 05:10:27;;;;;;;73.47;8.38;;;;;;;13.26;100.00;98748.88;7360009;19;20086;-63
2023/10/26 05:12:54;;;;;;;6.97;3.67;;;;;;;13.27;100.00;98739.13;7359168;19;20014;-64
2023/10/26 05:15:21;;;;;;;7.28;4.00;;;;;;;13.27;100.00;98739.94;7352688;19;20018;-63
2023/10/26 05:17:48;;;;;;;8.70;4.05;;;;;;;13.28;100.00;98725.69;7353516;19;20078;-63
2023/10/26 05:20:16;;;;;;;8.38;4.30;;;;;;;13.27;100.00;98726.72;7354911;19;20652;-63
2023/10/26 05:22:44;;;;;;;8.88;4.05;;;;;;;13.28;100.00;98725.69;7358662;19;20026;-63
2023/10/26 05:25:13;;;;;;;9.25;4.13;;;;;;;13.30;100.00;98722.03;7358348;19;20022;-63
2023/10/26 05:27:40;;;;;;;8.55;4.07;;;;;;;13.33;100.00;98727.69;7356472;19;20022;-63
2023/10/26 05:30:08;;;;;;;8.88;3.60;;;;;;;13.36;100.00;98719.28;7356321;19;20134;-63
2023/10/26 05:32:35;;;;;;;7.90;4.25;;;;;;;13.35;100.00;98719.53;7358130;19;20133;-64
2023/10/26 05:35:02;;;;;;;26.40;5.35;;;;;;;13.34;100.00;98715.28;7355245;19;20017;-64
2023/10/26 05:37:29;;;;;;;6.13;3.70;;;;;;;13.36;100.00;98705.31;7358456;19;20529;-64
2023/10/26 05:39:56;;;;;;;14.40;3.80;;;;;;;13.38;100.00;98704.03;7358477;19;20010;-64
2023/10/26 05:42:22;;;;;;;6.50;2.88;;;;;;;13.40;100.00;98709.09;7357663;19;20006;-62
2023/10/26 05:44:49;;;;;;;7.28;3.80;;;;;;;13.41;100.00;98705.44;7360608;19;20010;-64
2023/10/26 05:47:16;;;;;;;5.70;2.78;;;;;;;13.41;100.00;98700.94;7360056;19;20038;-63
2023/10/26 05:49:47;;;;;;;83.43;6.13;;;;;;;13.42;100.00;98699.09;7354308;19;20014;-63
2023/10/26 05:52:15;;;;;;;6.15;3.17;;;;;;;13.43;100.00;98701.53;7358756;19;20082;-63
2023/10/26 05:54:42;;;;;;;5.72;2.58;;;;;;;13.43;100.00;98698.91;7356370;19;20022;-64
2023/10/26 05:57:09;;;;;;;4.47;2.35;;;;;;;13.43;100.00;98696.25;7355346;19;20014;-65
2023/10/26 05:59:36;;;;;;;5.82;2.88;;;;;;;13.42;100.00;98691.19;7355336;19;20031;-64
2023/10/26 06:02:03;;;;;;;8.57;2.53;;;;;;;13.42;100.00;98688.53;7354055;19;20039;-64
2023/10/26 06:04:31;;;;;;;7.32;3.30;;;;;;;13.39;100.00;98679.25;7351597;19;20014;-64
2023/10/26 06:06:59;;;;;;;4.38;2.42;;;;;;;13.40;100.00;98688.78;7354549;19;20100;-66
2023/10/26 06:09:26;;;;;;;7.00;2.95;;;;;;;13.39;100.00;98679.25;7354489;19;20019;-63
2023/10/26 06:11:53;;;;;;;4.85;2.42;;;;;;;13.39;100.00;98679.25;7356044;19;20018;-63
2023/10/26 06:14:20;;;;;;;6.07;2.58;;;;;;;13.37;100.00;98675.19;7355508;19;20006;-64
2023/10/26 06:16:47;;;;;;;3.33;2.10;;;;;;;13.39;100.00;98678.44;7352891;19;20855;-63
2023/10/26 06:19:14;;;;;;;6.68;1.80;;;;;;;13.39;100.00;98678.44;7352242;19;20690;-63
2023/10/26 06:21:41;;;;;;;4.18;1.88;;;;;;;13.36;100.00;98674.38;7355543;19;20018;-64
2023/10/26 06:24:08;;;;;;;4.95;2.25;;;;;;;13.36;100.00;98669.09;7355283;19;20018;-62
2023/10/26 06:26:35;;;;;;;4.53;2.17;;;;;;;13.38;100.00;98671.53;7355643;19;20733;-65
2023/10/26 06:29:03;;;;;;;4.15;2.05;;;;;;;13.42;100.00;98672.69;7355506;19;20034;-64
2023/10/26 06:31:30;;;;;;;4.90;2.20;;;;;;;13.45;100.00;98662.50;7356022;19;20027;-64
2023/10/26 06:33:59;;;;;;;4.47;2.10;;;;;;;13.45;100.00;98675.72;7349888;19;20011;-63
2023/10/26 06:36:26;;;;;;;3.35;1.35;;;;;;;13.43;100.00;98663.75;7356261;19;20409;-64
2023/10/26 06:38:56;;;;;;;7.18;3.85;;;;;;;13.44;100.00;98668.00;7351429;19;20014;-63
2023/10/26 06:41:23;;;;;;;4.90;1.83;;;;;;;13.43;100.00;98659.25;7355790;19;20485;-65
2023/10/26 06:43:51;;;;;;;3.55;1.95;;;;;;;13.45;100.00;98659.06;7352809;19;20023;-64
2023/10/26 06:46:19;;;;;;;4.43;1.92;;;;;;;13.48;100.00;98658.59;7353261;19;20026;-65
2023/10/26 06:48:46;;;;;;;5.47;2.45;;;;;;;13.46;100.00;98663.31;7349097;19;20015;-64
2023/10/26 06:51:13;;;;;;;5.28;2.13;;;;;;;13.46;100.00;98656.16;7355782;19;20010;-65
2023/10/26 06:53:40;;;;;;;4.55;1.95;;;;;;;13.48;100.00;98664.69;7353394;19;20006;-65
2023/10/26 06:56:13;;;;;;;7.60;2.17;;;;;;;13.47;100.00;98660.41;7356559;19;20014;-66
2023/10/26 06:58:42;;;;;;;;;;;;;;;13.50;100.00;98661.81;7358234;19;20022;-66
2023/10/26 07:01:09;;;;;;;6.20;2.00;;;;;;;13.51;100.00;98661.56;7354957;19;19957;-66
2023/10/26 07:03:46;;;;;;;5.43;2.13;;;;;;;13.52;100.00;98667.66;7347906;19;20426;-65
2023/10/26 07:06:14;;;;;;;5.75;2.13;;;;;;;13.50;100.00;98677.69;7352525;19;20014;-66
2023/10/26 07:08:40;;;;;;;5.05;3.00;;;;;;;13.51;100.00;98676.66;7351368;19;20317;-66
2023/10/26 07:11:07;;;;;;;5.38;2.78;;;;;;;13.51;100.00;98680.06;7356822;19;21787;-66
2023/10/26 07:13:34;;;;;;;6.30;3.03;;;;;;;13.51;100.00;98666.09;7352790;19;20093;-65
2023/10/26 07:16:03;;;;;;;8.15;4.28;;;;;;;13.52;100.00;98660.56;7354841;19;20011;-64
2023/10/26 07:18:31;;;;;;;4.88;2.92;;;;;;;13.53;100.00;98666.66;7345827;19;20457;-65
2023/10/26 07:20:58;;;;;;;9.50;3.03;;;;;;;13.51;100.00;98666.09;7350431;19;20102;-66
2023/10/26 07:23:25;;;;;;;8.02;3.70;;;;;;;13.51;100.00;98663.44;7352819;19;20406;-64
2023/10/26 07:25:52;;;;;;;7.68;3.72;;;;;;;13.54;100.00;98669.06;7357048;19;20014;-66
2023/10/26 07:28:19;;;;;;;7.40;3.80;;;;;;;13.52;100.00;98660.56;7348931;19;20833;-65
2023/10/26 07:30:51;;;;;;;8.13;4.00;;;;;;;13.54;100.00;98668.25;7355975;19;20006;-65
2023/10/26 07:33:19;;;;;;;5.85;3.40;;;;;;;13.55;100.00;98672.53;7351428;19;20847;-66
2023/10/26 07:35:58;;;;;;;7.55;3.25;;;;;;;13.57;100.00;98679.19;7355489;19;20618;-66
2023/10/26 07:38:25;;;;;;;13.55;4.38;;;;;;;13.58;100.00;98672.06;7357046;19;20312;-67
2023/10/26 07:41:04;;;;;;;7.28;2.88;;;;;;;13.57;100.00;98665.97;7361995;19;20021;-67
2023/10/26 07:43:51;;;;;;;4.55;2.63;;;;;;;13.58;100.00;98662.28;7361760;19;20011;-65
2023/10/26 07:46:20;;;;;;;6.95;3.03;;;;;;;13.60;100.00;98659.44;7362301;19;20026;-65
2023/10/26 07:48:47;;;;;;;10.23;2.40;;;;;;;13.61;100.00;98661.06;7357115;19;21642;-66
2023/10/26 07:51:14;;;;;;;8.10;2.33;;;;;;;13.61;100.00;98658.41;7359680;19;20018;-65
2023/10/26 07:53:41;;;;;;;6.70;2.85;;;;;;;13.62;100.00;98660.81;7360805;19;20524;-65
2023/10/26 07:56:08;;;;;;;4.35;1.90;;;;;;;13.69;100.00;98663.34;7360510;19;20661;-65
2023/10/26 07:58:35;;;;;;;5.53;2.42;;;;;;;13.75;100.00;98662.47;7361056;19;20029;-66
2023/10/26 08:01:09;;;;;;;5.55;2.85;;;;;;;13.77;100.00;98668.31;7360089;19;20015;-65
2023/10/26 08:03:36;;;;;;;4.57;2.40;;;;;;;13.79;100.00;98660.16;7355162;19;20014;-68
2023/10/26 08:06:05;;;;;;;3.92;2.00;;;;;;;13.82;100.00;98668.44;7358246;19;20113;-66
2023/10/26 08:08:32;;;;;;;5.13;1.55;;;;;;;13.86;100.00;98666.97;7360990;19;20329;-66
2023/10/26 08:11:10;;;;;;;3.80;1.42;;;;;;;13.88;100.00;98664.06;7362598;19;20022;-66
2023/10/26 08:13:37;;;;;;;1.98;0.80;;;;;;;13.87;100.00;98663.28;7361086;19;20462;-65
2023/10/26 08:16:05;;;;;;;2.92;0.93;;;;;;;13.85;100.00;98668.00;7361389;19;20467;-65
2023/10/26 08:18:52;;;;;;;1.65;0.90;;;;;;;13.84;100.00;98673.50;7350749;19;20022;-66
2023/10/26 08:21:20;;;;;;;4.15;0.90;;;;;;;13.84;100.00;98670.84;7356091;19;20672;-65
2023/10/26 08:23:47;;;;;;;2.50;0.60;;;;;;;13.85;100.00;98672.47;7358055;19;21004;-66
2023/10/26 08:26:15;;;;;;;2.72;0.75;;;;;;;13.81;100.00;98671.31;7359528;19;20006;-66
2023/10/26 08:28:41;;;;;;;4.68;0.70;;;;;;;13.83;100.00;98675.34;7355156;19;20024;-66
2023/10/26 08:31:09;;;;;;;2.15;0.60;;;;;;;13.82;100.00;98679.00;7359119;19;20511;-65
2023/10/26 08:33:36;;;;;;;2.13;0.50;;;;;;;13.80;100.00;98682.94;7354204;19;20060;-65
2023/10/26 08:36:04;;;;;;;3.00;0.85;;;;;;;13.82;100.00;98676.34;7357097;19;20617;-66
2023/10/26 08:38:32;;;;;;;4.47;0.88;;;;;;;13.85;100.00;98675.94;7356239;19;20018;-66
2023/10/26 08:40:59;;;;;;;3.25;1.10;;;;;;;13.87;100.00;98673.03;7356675;19;20550;-66
2023/10/26 08:43:28;;;;;;;2.80;1.70;;;;;;;13.91;100.00;98676.84;7356720;19;20014;-66
2023/10/26 08:45:58;;;;;;;4.22;0.98;;;;;;;13.91;100.00;98682.97;7360776;19;20014;-65
2023/10/26 08:48:28;;;;;;;4.75;0.80;;;;;;;13.95;100.00;98689.41;7351158;19;20445;-65
2023/10/26 08:50:55;;;;;;;4.22;0.80;;;;;;;13.95;100.00;98686.75;7357805;19;20024;-65
2023/10/26 08:53:22;;;;;;;2.13;0.70;;;;;;;13.92;100.00;98686.38;7355542;19;20478;-66
2023/10/26 08:55:54;;;;;;;2.78;0.80;;;;;;;13.92;100.00;98691.66;7357242;19;20136;-67
2023/10/26 08:58:21;;;;;;;3.65;0.80;;;;;;;13.91;100.00;98692.72;7356351;19;20010;-65
2023/10/26 09:00:51;;;;;;;5.68;0.93;;;;;;;13.95;100.00;98699.97;7356119;19;20014;-65
2023/10/26 09:03:18;;;;;;;5.97;0.82;;;;;;;14.01;100.00;98692.97;7354435;19;20039;-66
2023/10/26 09:05:53;;;;;;;147.70;6.47;;;;;;;14.01;100.00;98693.78;7358489;19;20018;-66
2023/10/26 09:08:27;;;;;;;4.88;1.67;;;;;;;14.06;100.00;98690.44;7355603;19;20021;-66
2023/10/26 09:10:54;;;;;;;3.78;1.00;;;;;;;14.04;100.00;98688.03;7358902;19;20014;-65
2023/10/26 09:13:27;;;;;;;3.95;1.50;;;;;;;14.04;100.00;98690.66;7352892;19;20018;-65
2023/10/26 09:15:58;;;;;;;7.28;1.85;;;;;;;14.09;100.00;98695.28;7359447;19;20010;-65
2023/10/26 09:18:28;;;;;;;6.45;1.70;;;;;;;14.09;100.00;98696.06;7354812;19;20014;-66
2023/10/26 09:21:08;;;;;;;4.43;1.00;;;;;;;14.09;100.00;98698.72;7354694;19;20034;-65
2023/10/26 09:23:40;;;;;;;3.60;1.25;;;;;;;14.09;100.00;98682.84;7358797;19;21136;-65
2023/10/26 09:26:08;;;;;;;5.03;1.50;;;;;;;14.12;100.00;98690.31;7358546;19;20010;-65
2023/10/26 09:28:55;;;;;;;4.90;1.50;;;;;;;14.13;100.00;98683.19;7354217;19;20023;-65
2023/10/26 09:31:23;;;;;;;6.43;2.33;;;;;;;14.17;100.00;98681.69;7353381;19;20022;-65
2023/10/26 09:33:51;;;;;;;4.85;2.00;;;;;;;14.21;100.00;98695.28;7354840;19;20061;-65
2023/10/26 09:36:20;;;;;;;7.68;1.85;;;;;;;14.25;100.00;98701.72;7358802;19;20026;-65
2023/10/26 09:38:47;;;;;;;5.50;2.15;;;;;;;14.28;100.00;98693.31;7358275;19;20034;-66
2023/10/26 09:41:16;;;;;;;6.22;1.85;;;;;;;14.34;100.00;98703.78;7357198;19;20787;-64
2023/10/26 09:43:43;;;;;;;4.70;2.03;;;;;;;14.37;100.00;98718.44;7355827;19;20550;-65
2023/10/26 09:46:11;;;;;;;5.25;1.58;;;;;;;14.34;100.00;98708.28;7358483;19;20010;-65
2023/10/26 09:48:40;;;;;;;7.93;2.60;;;;;;;14.31;100.00;98706.09;7355931;19;20010;-65
2023/10/26 09:51:10;;;;;;;4.68;2.00;;;;;;;14.37;100.00;98724.56;7359100;19;20015;-65
2023/10/26 09:53:39;;;;;;;6.55;2.08;;;;;;;14.33;100.00;98719.88;7356850;19;20125;-66
2023/10/26 09:56:17;;;;;;;3.95;2.20;;;;;;;14.30;100.00;98723.81;7355485;19;20021;-65
2023/10/26 09:58:44;;;;;;;4.55;1.90;;;;;;;14.30;100.00;98728.31;7355884;19;20089;-65
2023/10/26 10:01:34;;;;;;;6.40;2.40;;;;;;;14.27;100.00;98734.88;7354114;19;20074;-65
2023/10/26 10:04:02;;;;;;;7.10;2.42;;;;;;;14.27;100.00;98729.56;7350786;19;21691;-66
2023/10/26 10:06:51;;;;;;;6.15;2.90;;;;;;;14.34;100.00;98737.38;7358738;19;20621;-65
2023/10/26 10:09:23;;;;;;;8.10;2.45;;;;;;;14.39;100.00;98738.34;7354425;19;20017;-65
2023/10/26 10:12:08;;;;;;;6.38;2.92;;;;;;;14.46;100.00;98735.59;7337929;19;20469;-66
2023/10/26 10:14:48;;;;;;;6.03;2.83;;;;;;;14.52;100.00;98734.69;7351171;19;20612;-66
2023/10/26 10:17:16;;;;;;;5.75;3.05;;;;;;;14.53;100.00;98731.78;7346897;19;20010;-66
2023/10/26 10:19:46;;;;;;;7.47;3.30;;;;;;;14.62;100.00;98729.63;7349617;19;21302;-66
2023/10/26 10:22:39;;;;;;;5.63;2.80;;;;;;;14.68;100.00;98723.38;7350616;19;20026;-66
2023/10/26 10:25:10;;;;;;;8.10;2.20;;;;;;;14.71;100.00;98724.78;7348299;19;20047;-66
2023/10/26 10:27:38;;;;;;;7.90;2.33;;;;;;;14.74;100.00;98730.41;7352571;19;20294;-66
2023/10/26 10:30:10;;;;;;;14.95;3.00;;;;;;;14.75;100.00;98729.38;7351219;19;20014;-66
2023/10/26 10:32:46;;;;;;;8.95;2.58;;;;;;;14.79;100.00;98737.63;7355076;19;20041;-66
2023/10/26 10:35:34;;;;;;;7.03;2.97;;;;;;;14.80;100.00;98736.63;7353741;19;20021;-66
2023/10/26 10:38:13;;;;;;;9.23;2.05;;;;;;;14.81;100.00;98735.59;7353677;19;20021;-65
2023/10/26 10:41:01;;;;;;;8.30;2.20;;;;;;;14.79;100.00;98746.41;7355803;19;20066;-65
2023/10/26 10:43:32;;;;;;;8.50;2.50;;;;;;;14.78;100.00;98741.34;7351179;19;20387;-65
2023/10/26 10:46:15;;;;;;;8.20;2.50;;;;;;;14.78;100.00;98738.72;7353448;19;20375;-66
2023/10/26 10:49:07;;;;;;;11.80;4.95;;;;;;;14.76;100.00;98736.28;7351144;19;20796;-65
2023/10/26 10:51:42;;;;;;;16.20;6.30;;;;;;;14.82;100.00;98730.06;7358490;19;20011;-67
2023/10/26 10:54:12;;;;;;;11.90;3.08;;;;;;;14.91;100.00;98727.84;7352536;19;20014;-65
2023/10/26 10:56:56;;;;;;;7.22;1.75;;;;;;;15.02;100.00;98727.03;7356058;19;20025;-67
2023/10/26 10:59:25;;;;;;;8.20;1.27;;;;;;;15.11;100.00;98728.28;7346905;19;20015;-66
2023/10/26 11:02:08;;;;;;;6.30;0.98;;;;;;;15.18;100.00;98736.09;7354696;19;20045;-65
2023/10/26 11:04:51;;;;;;;5.03;0.80;;;;;;;15.21;100.00;98727.66;7356192;19;20490;-65
2023/10/26 11:07:31;;;;;;;11.02;1.02;;;;;;;15.22;100.00;98726.63;7356506;19;20014;-66
2023/10/26 11:10:00;;;;;;;10.15;0.80;;;;;;;15.24;100.00;98730.66;7356212;19;21847;-65
2023/10/26 11:12:27;;;;;;;7.00;0.70;;;;;;;15.28;100.00;98723.88;7363449;19;20383;-65
2023/10/26 11:14:56;;;;;;;7.07;0.70;;;;;;;15.33;100.00;98723.97;7360341;19;20022;-66
2023/10/26 11:17:24;;;;;;;6.40;0.80;;;;;;;15.38;100.00;98715.31;7362759;19;20019;-66
2023/10/26 11:19:53;;;;;;;12.18;1.40;;;;;;;15.48;100.00;98720.00;7356418;19;20403;-65
2023/10/26 11:22:21;;;;;;;10.27;1.10;;;;;;;15.54;100.00;98722.53;7357762;19;20018;-65
2023/10/26 11:24:49;;;;;;;12.90;1.00;;;;;;;15.56;100.00;98712.47;7359840;19;20334;-65
2023/10/26 11:27:23;;;;;;;12.20;1.17;;;;;;;15.66;100.00;98712.66;7361672;19;20018;-65
2023/10/26 11:30:03;;;;;;;10.15;0.93;;;;;;;15.70;100.00;98712.97;7358132;19;20121;-65
2023/10/26 11:32:30;;;;;;;10.52;0.85;;;;;;;15.74;100.00;98719.44;7360911;19;20010;-66
2023/10/26 11:35:09;;;;;;;9.05;0.93;;;;;;;15.74;100.00;98720.25;7359213;19;21080;-65